createdAt,value
2018-12-11T00:00:47.891Z,0
2018-12-11T00:01:47.868Z,0
2018-12-11T00:02:47.616Z,0
2018-12-11T00:03:47.837Z,0
2018-12-11T00:04:47.815Z,0
2018-12-11T00:05:47.553Z,0
2018-12-11T00:06:47.778Z,0
2018-12-11T00:07:47.762Z,0
2018-12-11T00:08:47.740Z,0
2018-12-11T00:09:47.476Z,0
2018-12-11T00:10:47.699Z,0
2018-12-11T00:11:47.683Z,0
2018-12-11T00:12:47.171Z,0
2018-12-11T00:13:47.651Z,0
2018-12-11T00:14:47.130Z,0
2018-12-11T00:15:47.362Z,0
2018-12-11T00:16:47.592Z,0
2018-12-11T00:17:47.573Z,0
2018-12-11T00:18:47.622Z,0
2018-12-11T00:19:47.540Z,0
2018-12-11T00:20:47.271Z,0
2018-12-11T00:21:47.511Z,0
2018-12-11T00:22:47.662Z,0
2018-12-11T00:23:47.461Z,0
2018-12-11T00:24:47.442Z,0
2018-12-11T00:25:47.177Z,0
2018-12-11T00:26:47.419Z,0
2018-12-11T00:27:47.396Z,0
2018-12-11T00:28:47.374Z,0
2018-12-11T00:29:47.350Z,0
2018-12-11T00:30:47.081Z,0
2018-12-11T00:31:47.309Z,0
2018-12-11T00:32:47.293Z,0
2018-12-11T00:33:47.030Z,0
2018-12-11T00:34:47.256Z,0
2018-12-11T00:35:47.236Z,0
2018-12-11T00:36:46.972Z,0
2018-12-11T00:37:47.200Z,0
2018-12-11T00:38:46.931Z,0
2018-12-11T00:39:47.220Z,0
2018-12-11T00:40:47.148Z,0
2018-12-11T00:41:47.128Z,0
2018-12-11T00:42:47.109Z,0
2018-12-11T00:43:46.845Z,0
2018-12-11T00:44:47.070Z,0
2018-12-11T00:45:59.799Z,0
2018-12-11T00:46:47.049Z,0
2018-12-11T00:47:47.036Z,0
2018-12-11T00:48:46.763Z,0
2018-12-11T00:49:46.990Z,0
2018-12-11T00:50:46.720Z,0
2018-12-11T00:51:46.952Z,0
2018-12-11T00:52:46.984Z,0
2018-12-11T00:53:46.911Z,0
2018-12-11T00:54:46.904Z,0
2018-12-11T00:55:46.892Z,0
2018-12-11T00:56:46.614Z,0
2018-12-11T00:57:46.596Z,0
2018-12-11T00:58:46.825Z,0
2018-12-11T00:59:46.803Z,0
2018-12-11T01:00:46.791Z,0
2018-12-11T01:01:46.763Z,0
2018-12-11T01:02:46.500Z,0
2018-12-11T01:03:46.729Z,0
2018-12-11T01:04:46.723Z,0
2018-12-11T01:05:46.444Z,0
2018-12-11T01:06:46.674Z,0
2018-12-11T01:07:46.421Z,0
2018-12-11T01:08:46.399Z,0
2018-12-11T01:09:46.625Z,0
2018-12-11T01:10:46.595Z,0
2018-12-11T01:11:46.579Z,0
2018-12-11T01:12:46.315Z,0
2018-12-11T01:13:46.552Z,0
2018-12-11T01:14:46.283Z,0
2018-12-11T01:15:46.514Z,0
2018-12-11T01:16:46.249Z,0
2018-12-11T01:17:46.472Z,0
2018-12-11T01:18:45.959Z,0
2018-12-11T01:19:46.183Z,0
2018-12-11T01:20:46.419Z,0
2018-12-11T01:21:46.411Z,0
2018-12-11T01:22:46.386Z,0
2018-12-11T01:23:46.362Z,0
2018-12-11T01:24:46.347Z,0
2018-12-11T01:25:46.327Z,0
2018-12-11T01:26:46.304Z,0
2018-12-11T01:27:46.037Z,0
2018-12-11T01:28:46.265Z,0
2018-12-11T01:29:45.999Z,0
2018-12-11T01:30:46.237Z,0
2018-12-11T01:31:46.211Z,0
2018-12-11T01:32:46.200Z,0
2018-12-11T01:33:45.933Z,0
2018-12-11T01:34:46.166Z,0
2018-12-11T01:35:46.139Z,0
2018-12-11T01:36:45.886Z,0
2018-12-11T01:37:46.103Z,0
2018-12-11T01:38:46.090Z,0
2018-12-11T01:39:46.062Z,0
2018-12-11T01:40:46.061Z,0
2018-12-11T01:41:45.783Z,0
2018-12-11T01:42:45.756Z,0
2018-12-11T01:43:45.987Z,0
2018-12-11T01:44:45.975Z,0
2018-12-11T01:45:45.956Z,0
2018-12-11T01:46:46.085Z,0
2018-12-11T01:47:45.679Z,0
2018-12-11T01:48:45.650Z,0
2018-12-11T01:49:45.878Z,0
2018-12-11T01:50:45.609Z,0
2018-12-11T01:51:45.845Z,0
2018-12-11T01:52:45.618Z,0
2018-12-11T01:53:45.808Z,0
2018-12-11T01:54:45.791Z,0
2018-12-11T01:55:45.516Z,0
2018-12-11T01:56:45.753Z,0
2018-12-11T01:57:45.732Z,0
2018-12-11T01:58:45.715Z,0
2018-12-11T01:59:45.451Z,0
2018-12-11T02:00:45.418Z,0
2018-12-11T02:01:45.650Z,0
2018-12-11T02:02:45.630Z,0
2018-12-11T02:03:45.624Z,0
2018-12-11T02:04:45.612Z,0
2018-12-11T02:05:45.335Z,0
2018-12-11T02:06:45.567Z,0
2018-12-11T02:07:45.590Z,0
2018-12-11T02:08:45.529Z,0
2018-12-11T02:09:45.505Z,0
2018-12-11T02:10:45.239Z,0
2018-12-11T02:11:45.465Z,0
2018-12-11T02:12:45.253Z,0
2018-12-11T02:13:45.436Z,0
2018-12-11T02:14:45.418Z,0
2018-12-11T02:15:45.395Z,0
2018-12-11T02:16:45.377Z,0
2018-12-11T02:17:45.363Z,0
2018-12-11T02:18:44.836Z,0
2018-12-11T02:19:45.327Z,0
2018-12-11T02:20:45.335Z,0
2018-12-11T02:21:51.302Z,0
2018-12-11T02:22:45.277Z,0
2018-12-11T02:23:45.006Z,0
2018-12-11T02:24:45.236Z,0
2018-12-11T02:25:45.206Z,0
2018-12-11T02:26:45.190Z,0
2018-12-11T02:27:45.169Z,0
2018-12-11T02:28:45.147Z,0
2018-12-11T02:29:45.190Z,0
2018-12-11T02:30:45.158Z,0
2018-12-11T02:31:44.884Z,0
2018-12-11T02:32:44.837Z,0
2018-12-11T02:33:44.829Z,0
2018-12-11T02:34:45.057Z,0
2018-12-11T02:35:45.025Z,0
2018-12-11T02:36:45.029Z,0
2018-12-11T02:37:44.990Z,0
2018-12-11T02:38:44.974Z,0
2018-12-11T02:39:44.960Z,0
2018-12-11T02:40:44.691Z,0
2018-12-11T02:41:44.918Z,0
2018-12-11T02:42:44.893Z,0
2018-12-11T02:43:44.878Z,0
2018-12-11T02:44:44.107Z,0
2018-12-11T02:45:45.090Z,0
2018-12-11T02:46:44.344Z,0
2018-12-11T02:47:44.799Z,0
2018-12-11T02:48:44.538Z,0
2018-12-11T02:49:44.815Z,0
2018-12-11T02:50:44.498Z,0
2018-12-11T02:51:44.729Z,0
2018-12-11T02:52:44.465Z,0
2018-12-11T02:55:43.276Z,0
2018-12-11T02:55:53.170Z,0
2018-12-11T02:56:52.650Z,0
2018-12-11T02:57:53.129Z,0
2018-12-11T02:58:53.093Z,0
2018-12-11T02:59:53.085Z,0
2018-12-11T03:00:53.069Z,0
2018-12-11T03:01:53.066Z,0
2018-12-11T03:02:53.029Z,0
2018-12-11T03:03:53.010Z,0
2018-12-11T03:04:52.989Z,0
2018-12-11T03:05:53.027Z,0
2018-12-11T03:06:52.704Z,0
2018-12-11T03:07:52.681Z,0
2018-12-11T03:08:52.911Z,0
2018-12-11T03:09:52.892Z,0
2018-12-11T03:10:52.983Z,0
2018-12-11T03:11:52.687Z,0
2018-12-11T03:12:52.848Z,0
2018-12-11T03:13:52.829Z,0
2018-12-11T03:14:52.560Z,0
2018-12-11T03:15:52.802Z,0
2018-12-11T03:16:52.790Z,0
2018-12-11T03:17:52.759Z,0
2018-12-11T03:18:52.729Z,0
2018-12-11T03:19:52.705Z,0
2018-12-11T03:20:52.707Z,0
2018-12-11T03:21:52.439Z,0
2018-12-11T03:22:52.660Z,0
2018-12-11T03:23:52.656Z,0
2018-12-11T03:24:52.620Z,0
2018-12-11T03:25:52.427Z,0
2018-12-11T03:26:52.580Z,0
2018-12-11T03:27:52.565Z,0
2018-12-11T03:28:52.546Z,0
2018-12-11T03:29:52.517Z,0
2018-12-11T03:30:52.537Z,0
2018-12-11T03:31:52.530Z,0
2018-12-11T03:32:52.522Z,0
2018-12-11T03:33:52.447Z,0
2018-12-11T03:34:52.431Z,0
2018-12-11T03:35:52.424Z,0
2018-12-11T03:36:52.137Z,0
2018-12-11T03:37:52.368Z,0
2018-12-11T03:38:51.915Z,0
2018-12-11T03:39:52.337Z,0
2018-12-11T03:40:52.354Z,0
2018-12-11T03:41:52.048Z,0
2018-12-11T03:42:52.296Z,0
2018-12-11T03:43:52.117Z,0
2018-12-11T03:44:52.254Z,0
2018-12-11T03:45:51.981Z,0
2018-12-11T03:46:51.979Z,0
2018-12-11T03:47:51.943Z,0
2018-12-11T03:48:52.168Z,0
2018-12-11T03:49:52.150Z,0
2018-12-11T03:50:52.137Z,0
2018-12-11T03:51:52.123Z,0
2018-12-11T03:52:52.100Z,0
2018-12-11T03:53:51.834Z,0
2018-12-11T03:54:51.817Z,0
2018-12-11T03:55:52.050Z,0
2018-12-11T03:56:52.025Z,0
2018-12-11T03:57:52.013Z,0
2018-12-11T03:58:51.976Z,0
2018-12-11T03:59:51.463Z,0
2018-12-11T04:00:51.936Z,0
2018-12-11T04:01:51.932Z,0
2018-12-11T04:02:51.892Z,0
2018-12-11T04:03:51.649Z,0
2018-12-11T04:04:51.862Z,0
2018-12-11T04:05:51.344Z,0
2018-12-11T04:06:51.824Z,0
2018-12-11T04:07:51.589Z,0
2018-12-11T04:08:51.797Z,0
2018-12-11T04:09:51.538Z,0
2018-12-11T04:10:51.515Z,0
2018-12-11T04:11:51.480Z,0
2018-12-11T04:12:51.462Z,0
2018-12-11T04:13:51.440Z,0
2018-12-11T04:14:51.674Z,0
2018-12-11T04:15:51.668Z,0
2018-12-11T04:16:51.648Z,0
2018-12-11T04:17:51.636Z,0
2018-12-11T04:18:51.612Z,0
2018-12-11T04:19:51.329Z,0
2018-12-11T04:20:51.587Z,0
2018-12-11T04:21:51.605Z,0
2018-12-11T04:22:51.609Z,0
2018-12-11T04:23:51.516Z,0
2018-12-11T04:24:51.240Z,0
2018-12-11T04:25:51.218Z,0
2018-12-11T04:26:51.454Z,0
2018-12-11T04:27:51.185Z,0
2018-12-11T04:28:51.174Z,0
2018-12-11T04:29:51.391Z,0
2018-12-11T04:30:51.138Z,0
2018-12-11T04:31:51.413Z,0
2018-12-11T04:32:51.331Z,0
2018-12-11T04:33:51.334Z,0
2018-12-11T04:34:51.302Z,0
2018-12-11T04:35:51.784Z,0
2018-12-11T04:36:51.014Z,0
2018-12-11T04:37:51.245Z,0
2018-12-11T04:38:50.982Z,0
2018-12-11T04:39:51.212Z,0
2018-12-11T04:40:51.187Z,0
2018-12-11T04:41:51.249Z,0
2018-12-11T04:42:51.153Z,0
2018-12-11T04:43:50.890Z,0
2018-12-11T04:44:51.123Z,0
2018-12-11T04:45:50.854Z,0
2018-12-11T04:46:51.088Z,0
2018-12-11T04:47:50.815Z,0
2018-12-11T04:48:51.034Z,0
2018-12-11T04:49:51.082Z,0
2018-12-11T04:50:50.998Z,0
2018-12-11T04:51:50.975Z,0
2018-12-11T04:52:50.965Z,0
2018-12-11T04:53:50.944Z,0
2018-12-11T04:54:50.925Z,0
2018-12-11T04:55:50.915Z,0
2018-12-11T04:56:50.897Z,0
2018-12-11T04:57:50.925Z,0
2018-12-11T04:58:50.847Z,0
2018-12-11T04:59:50.833Z,0
2018-12-11T05:00:50.810Z,0
2018-12-11T05:01:50.789Z,0
2018-12-11T05:02:50.522Z,0
2018-12-11T05:03:50.759Z,0
2018-12-11T05:04:50.485Z,0
2018-12-11T05:05:50.714Z,0
2018-12-11T05:06:50.700Z,0
2018-12-11T05:07:50.680Z,0
2018-12-11T05:08:50.661Z,0
2018-12-11T05:09:50.636Z,0
2018-12-11T05:10:50.625Z,0
2018-12-11T05:11:50.361Z,0
2018-12-11T05:12:50.582Z,0
2018-12-11T05:13:51.233Z,0
2018-12-11T05:14:50.555Z,0
2018-12-11T05:15:50.533Z,0
2018-12-11T05:16:50.509Z,0
2018-12-11T05:17:50.242Z,0
2018-12-11T05:18:50.473Z,0
2018-12-11T05:19:50.457Z,0
2018-12-11T05:20:50.457Z,0
2018-12-11T05:21:50.429Z,0
2018-12-11T05:22:50.153Z,0
2018-12-11T05:23:50.383Z,0
2018-12-11T05:24:50.362Z,0
2018-12-11T05:25:50.159Z,0
2018-12-11T05:26:50.323Z,0
2018-12-11T05:27:50.302Z,0
2018-12-11T05:28:50.282Z,0
2018-12-11T05:29:50.019Z,0
2018-12-11T05:30:50.250Z,0
2018-12-11T05:31:50.224Z,0
2018-12-11T05:32:50.218Z,0
2018-12-11T05:33:49.961Z,0
2018-12-11T05:34:50.187Z,0
2018-12-11T05:35:49.910Z,0
2018-12-11T05:36:50.139Z,0
2018-12-11T05:37:50.127Z,0
2018-12-11T05:38:49.849Z,0
2018-12-11T05:39:50.084Z,0
2018-12-11T05:40:49.563Z,0
2018-12-11T05:41:50.102Z,0
2018-12-11T05:42:50.024Z,0
2018-12-11T05:43:50.010Z,0
2018-12-11T05:44:49.988Z,0
2018-12-11T05:45:49.963Z,0
2018-12-11T05:46:49.955Z,0
2018-12-11T05:47:49.931Z,0
2018-12-11T05:48:49.912Z,0
2018-12-11T05:49:49.647Z,0
2018-12-11T05:50:49.873Z,0
2018-12-11T05:51:49.861Z,0
2018-12-11T05:52:49.613Z,0
2018-12-11T05:53:49.814Z,0
2018-12-11T05:54:49.303Z,0
2018-12-11T05:55:49.779Z,0
2018-12-11T05:56:49.522Z,0
2018-12-11T05:57:49.505Z,0
2018-12-11T05:58:49.728Z,0
2018-12-11T05:59:49.712Z,0
2018-12-11T06:00:50.918Z,0
2018-12-11T06:01:49.671Z,0
2018-12-11T06:02:49.649Z,0
2018-12-11T06:03:49.635Z,0
2018-12-11T06:04:49.363Z,0
2018-12-11T06:05:49.606Z,0
2018-12-11T06:06:49.450Z,0
2018-12-11T06:07:49.111Z,0
2018-12-11T06:08:49.542Z,0
2018-12-11T06:09:49.352Z,0
2018-12-11T06:10:48.763Z,0
2018-12-11T06:11:49.482Z,0
2018-12-11T06:12:49.216Z,0
2018-12-11T06:13:49.443Z,0
2018-12-11T06:14:49.426Z,0
2018-12-11T06:15:49.409Z,0
2018-12-11T06:16:49.396Z,0
2018-12-11T06:17:49.367Z,0
2018-12-11T06:18:49.352Z,0
2018-12-11T06:19:49.337Z,0
2018-12-11T06:20:49.322Z,0
2018-12-11T06:21:49.297Z,0
2018-12-11T06:22:49.285Z,0
2018-12-11T06:23:49.008Z,0
2018-12-11T06:24:49.391Z,0
2018-12-11T06:25:49.220Z,0
2018-12-11T06:26:48.956Z,0
2018-12-11T06:27:49.181Z,0
2018-12-11T06:28:48.925Z,0
2018-12-11T06:29:49.155Z,0
2018-12-11T06:30:49.178Z,0
2018-12-11T06:31:49.109Z,0
2018-12-11T06:32:48.656Z,0
2018-12-11T06:33:49.078Z,0
2018-12-11T06:34:49.054Z,0
2018-12-11T06:35:49.031Z,0
2018-12-11T06:36:49.021Z,0
2018-12-11T06:37:49.001Z,0
2018-12-11T06:38:48.984Z,0
2018-12-11T06:39:48.722Z,0
2018-12-11T06:40:49.894Z,0
2018-12-11T06:41:48.923Z,0
2018-12-11T06:42:48.903Z,0
2018-12-11T06:43:48.955Z,0
2018-12-11T06:44:48.616Z,0
2018-12-11T06:45:48.858Z,0
2018-12-11T06:46:48.332Z,0
2018-12-11T06:47:48.813Z,0
2018-12-11T06:48:48.800Z,0
2018-12-11T06:49:48.773Z,0
2018-12-11T06:50:48.751Z,0
2018-12-11T06:51:48.740Z,0
2018-12-11T06:52:48.470Z,0
2018-12-11T06:53:48.701Z,0
2018-12-11T06:54:48.681Z,0
2018-12-11T06:55:48.660Z,0
2018-12-11T06:56:48.405Z,0
2018-12-11T06:57:48.621Z,0
2018-12-11T06:58:48.605Z,0
2018-12-11T06:59:48.584Z,0
2018-12-11T07:00:48.568Z,0
2018-12-11T07:01:48.303Z,5
2018-12-11T07:02:48.535Z,5
2018-12-11T07:03:48.517Z,5
2018-12-11T07:04:48.529Z,5
2018-12-11T07:05:48.486Z,5
2018-12-11T07:06:48.460Z,5
2018-12-11T07:07:48.443Z,5
2018-12-11T07:08:48.426Z,5
2018-12-11T07:09:48.467Z,5
2018-12-11T07:10:48.407Z,5
2018-12-11T07:11:48.366Z,5
2018-12-11T07:12:48.426Z,5
2018-12-11T07:13:48.328Z,5
2018-12-11T07:14:48.305Z,5
2018-12-11T07:15:48.044Z,5
2018-12-11T07:16:48.289Z,5
2018-12-11T07:17:48.250Z,5
2018-12-11T07:18:48.291Z,5
2018-12-11T07:19:48.215Z,10
2018-12-11T07:20:48.204Z,5
2018-12-11T07:21:48.180Z,10
2018-12-11T07:22:48.157Z,15
2018-12-11T07:23:48.167Z,15
2018-12-11T07:24:48.133Z,15
2018-12-11T07:25:48.102Z,20
2018-12-11T07:26:47.835Z,20
2018-12-11T07:27:48.079Z,25
2018-12-11T07:28:48.049Z,25
2018-12-11T07:29:48.043Z,30
2018-12-11T07:30:47.768Z,30
2018-12-11T07:31:47.745Z,40
2018-12-11T07:32:47.979Z,45
2018-12-11T07:33:53.357Z,45
2018-12-11T07:34:47.955Z,45
2018-12-11T07:35:47.669Z,40
2018-12-11T07:36:47.903Z,35
2018-12-11T07:37:47.632Z,35
2018-12-11T07:38:47.866Z,40
2018-12-11T07:39:47.906Z,40
2018-12-11T07:40:47.835Z,45
2018-12-11T07:41:47.811Z,45
2018-12-11T07:42:47.790Z,55
2018-12-11T07:43:47.769Z,50
2018-12-11T07:44:47.755Z,45
2018-12-11T07:45:47.738Z,45
2018-12-11T07:46:47.718Z,35
2018-12-11T07:47:47.699Z,30
2018-12-11T07:48:47.684Z,30
2018-12-11T07:49:47.657Z,25
2018-12-11T07:50:47.655Z,30
2018-12-11T07:51:47.373Z,25
2018-12-11T07:52:47.604Z,25
2018-12-11T07:53:47.589Z,35
2018-12-11T07:54:47.565Z,40
2018-12-11T07:55:47.301Z,50
2018-12-11T07:56:47.534Z,45
2018-12-11T07:57:47.260Z,50
2018-12-11T07:58:47.497Z,55
2018-12-11T07:59:47.474Z,55
2018-12-11T08:00:47.454Z,50
2018-12-11T08:01:47.440Z,55
2018-12-11T08:02:47.174Z,55
2018-12-11T08:03:47.160Z,50
2018-12-11T08:04:47.382Z,55
2018-12-11T08:05:47.122Z,40
2018-12-11T08:06:47.358Z,35
2018-12-11T08:07:47.334Z,40
2018-12-11T08:08:47.063Z,45
2018-12-11T08:09:47.289Z,50
2018-12-11T08:10:47.274Z,45
2018-12-11T08:11:47.264Z,45
2018-12-11T08:12:47.243Z,45
2018-12-11T08:13:47.213Z,50
2018-12-11T08:14:47.197Z,50
2018-12-11T08:15:47.180Z,50
2018-12-11T08:16:46.661Z,50
2018-12-11T08:17:47.166Z,60
2018-12-11T08:18:46.892Z,55
2018-12-11T08:19:47.118Z,65
2018-12-11T08:20:46.837Z,60
2018-12-11T08:21:47.065Z,50
2018-12-11T08:22:47.055Z,50
2018-12-11T08:23:47.030Z,50
2018-12-11T08:24:47.093Z,50
2018-12-11T08:25:47.014Z,60
2018-12-11T08:26:46.984Z,55
2018-12-11T08:27:46.956Z,70
2018-12-11T08:28:47.116Z,65
2018-12-11T08:29:46.946Z,65
2018-12-11T08:30:46.911Z,50
2018-12-11T08:31:46.889Z,40
2018-12-11T08:32:46.859Z,35
2018-12-11T08:33:46.597Z,45
2018-12-11T08:34:46.831Z,50
2018-12-11T08:35:46.827Z,50
2018-12-11T08:36:46.794Z,60
2018-12-11T08:37:46.768Z,70
2018-12-11T08:38:46.754Z,70
2018-12-11T08:39:46.747Z,50
2018-12-11T08:40:46.727Z,50
2018-12-11T08:41:46.703Z,40
2018-12-11T08:42:46.731Z,45
2018-12-11T08:43:46.818Z,40
2018-12-11T08:44:51.102Z,45
2018-12-11T08:45:46.639Z,45
2018-12-11T08:46:46.617Z,50
2018-12-11T08:47:46.592Z,65
2018-12-11T08:48:46.583Z,75
2018-12-11T08:49:46.565Z,85
2018-12-11T08:50:46.041Z,75
2018-12-11T08:51:46.518Z,75
2018-12-11T08:52:46.496Z,85
2018-12-11T08:53:46.242Z,70
2018-12-11T08:54:46.465Z,85
2018-12-11T08:55:46.450Z,70
2018-12-11T08:56:46.174Z,60
2018-12-11T08:57:46.405Z,75
2018-12-11T08:58:46.394Z,75
2018-12-11T08:59:46.383Z,75
2018-12-11T09:00:46.361Z,85
2018-12-11T09:01:46.339Z,75
2018-12-11T09:02:46.081Z,100
2018-12-11T09:03:46.057Z,100
2018-12-11T09:04:46.246Z,105
2018-12-11T09:05:46.026Z,95
2018-12-11T09:06:46.246Z,75
2018-12-11T09:07:46.235Z,70
2018-12-11T09:08:46.217Z,70
2018-12-11T09:09:46.202Z,65
2018-12-11T09:10:45.932Z,70
2018-12-11T09:11:46.153Z,65
2018-12-11T09:12:45.898Z,55
2018-12-11T09:13:46.122Z,60
2018-12-11T09:14:46.101Z,60
2018-12-11T09:15:45.832Z,75
2018-12-11T09:16:46.060Z,85
2018-12-11T09:17:46.043Z,95
2018-12-11T09:18:45.780Z,75
2018-12-11T09:19:46.007Z,75
2018-12-11T09:20:45.987Z,75
2018-12-11T09:21:45.969Z,70
2018-12-11T09:22:45.991Z,65
2018-12-11T09:23:45.937Z,70
2018-12-11T09:24:45.823Z,70
2018-12-11T09:25:45.906Z,85
2018-12-11T09:26:45.880Z,85
2018-12-11T09:27:45.862Z,70
2018-12-11T09:28:45.857Z,90
2018-12-11T09:29:45.838Z,100
2018-12-11T09:30:45.809Z,110
2018-12-11T09:31:45.798Z,95
2018-12-11T09:32:45.772Z,85
2018-12-11T09:33:45.754Z,95
2018-12-11T09:34:45.772Z,110
2018-12-11T09:35:45.716Z,95
2018-12-11T09:36:45.707Z,100
2018-12-11T09:37:45.679Z,90
2018-12-11T09:38:45.414Z,100
2018-12-11T09:39:45.869Z,85
2018-12-11T09:40:45.687Z,90
2018-12-11T09:41:45.365Z,95
2018-12-11T09:42:45.344Z,105
2018-12-11T09:43:45.325Z,100
2018-12-11T09:44:45.554Z,100
2018-12-11T09:45:45.293Z,80
2018-12-11T09:46:45.639Z,90
2018-12-11T09:47:45.252Z,80
2018-12-11T09:48:45.483Z,70
2018-12-11T09:49:45.637Z,80
2018-12-11T09:50:45.452Z,55
2018-12-11T09:51:45.435Z,50
2018-12-11T09:52:45.165Z,45
2018-12-11T09:53:45.396Z,45
2018-12-11T09:54:45.387Z,40
2018-12-11T09:55:45.361Z,45
2018-12-11T09:56:45.343Z,50
2018-12-11T09:57:45.069Z,55
2018-12-11T09:58:45.301Z,55
2018-12-11T09:59:45.286Z,50
2018-12-11T10:00:45.578Z,50
2018-12-11T10:01:45.246Z,45
2018-12-11T10:02:44.983Z,60
2018-12-11T10:03:45.527Z,60
2018-12-11T10:04:45.295Z,65
2018-12-11T10:05:45.179Z,75
2018-12-11T10:06:45.161Z,60
2018-12-11T10:07:45.141Z,65
2018-12-11T10:08:45.128Z,60
2018-12-11T10:09:45.103Z,55
2018-12-11T10:10:45.091Z,45
2018-12-11T10:11:44.829Z,55
2018-12-11T10:12:45.053Z,55
2018-12-11T10:13:45.029Z,55
2018-12-11T10:14:45.011Z,65
2018-12-11T10:15:45.055Z,70
2018-12-11T10:16:44.972Z,70
2018-12-11T10:17:44.714Z,75
2018-12-11T10:18:44.937Z,80
2018-12-11T10:19:44.920Z,70
2018-12-11T10:20:45.060Z,75
2018-12-11T10:21:44.396Z,75
2018-12-11T10:22:44.620Z,75
2018-12-11T10:23:44.856Z,75
2018-12-11T10:24:44.835Z,75
2018-12-11T10:25:44.824Z,75
2018-12-11T10:26:45.177Z,70
2018-12-11T10:27:44.536Z,70
2018-12-11T10:28:44.759Z,70
2018-12-11T10:29:44.741Z,75
2018-12-11T10:30:44.730Z,75
2018-12-11T10:31:44.708Z,70
2018-12-11T10:32:44.456Z,75
2018-12-11T10:33:44.426Z,70
2018-12-11T10:34:44.683Z,75
2018-12-11T10:35:44.629Z,65
2018-12-11T10:36:44.609Z,75
2018-12-11T10:37:44.591Z,65
2018-12-11T10:38:44.338Z,65
2018-12-11T10:39:44.321Z,70
2018-12-11T10:40:44.299Z,60
2018-12-11T10:41:44.089Z,70
2018-12-11T10:42:44.265Z,55
2018-12-11T10:43:44.490Z,65
2018-12-11T10:44:44.473Z,65
2018-12-11T10:45:44.457Z,70
2018-12-11T10:46:44.471Z,75
2018-12-11T10:47:43.917Z,75
2018-12-11T10:48:43.916Z,55
2018-12-11T10:49:44.383Z,55
2018-12-11T10:50:44.356Z,70
2018-12-11T10:51:44.357Z,70
2018-12-11T10:52:44.327Z,70
2018-12-11T10:53:44.305Z,60
2018-12-11T10:54:44.291Z,65
2018-12-11T10:55:44.020Z,65
2018-12-11T10:56:44.249Z,70
2018-12-11T10:57:44.228Z,75
2018-12-11T10:58:44.209Z,75
2018-12-11T10:59:44.201Z,80
2018-12-11T11:00:43.428Z,90
2018-12-11T11:01:44.162Z,75
2018-12-11T11:02:43.898Z,70
2018-12-11T11:03:44.127Z,75
2018-12-11T11:04:44.100Z,75
2018-12-11T11:05:43.847Z,75
2018-12-11T11:06:44.067Z,75
2018-12-11T11:07:44.049Z,75
2018-12-11T11:08:44.034Z,75
2018-12-11T11:09:44.026Z,70
2018-12-11T11:10:44.054Z,75
2018-12-11T11:11:44.541Z,70
2018-12-11T11:12:43.780Z,70
2018-12-11T11:13:43.972Z,70
2018-12-11T11:14:43.769Z,60
2018-12-11T11:15:44.013Z,55
2018-12-11T11:16:43.387Z,55
2018-12-11T11:17:43.631Z,55
2018-12-11T11:18:43.604Z,65
2018-12-11T11:19:43.848Z,75
2018-12-11T11:20:43.816Z,70
2018-12-11T11:21:43.810Z,65
2018-12-11T11:22:43.775Z,70
2018-12-11T11:23:43.755Z,65
2018-12-11T11:24:43.508Z,60
2018-12-11T11:25:43.720Z,60
2018-12-11T11:26:43.706Z,65
2018-12-11T11:27:45.010Z,65
2018-12-11T11:28:43.167Z,70
2018-12-11T11:29:43.646Z,60
2018-12-11T11:30:43.632Z,60
2018-12-11T11:31:43.608Z,60
2018-12-11T11:32:43.599Z,60
2018-12-11T11:33:43.331Z,65
2018-12-11T11:34:43.560Z,65
2018-12-11T11:35:43.039Z,55
2018-12-11T11:36:43.519Z,65
2018-12-11T11:37:43.501Z,65
2018-12-11T11:38:43.540Z,75
2018-12-11T11:39:43.220Z,55
2018-12-11T11:40:43.446Z,60
2018-12-11T11:41:43.427Z,60
2018-12-11T11:42:43.166Z,60
2018-12-11T11:43:43.145Z,55
2018-12-11T11:44:43.378Z,65
2018-12-11T11:45:43.354Z,65
2018-12-11T11:46:43.342Z,60
2018-12-11T11:47:43.320Z,60
2018-12-11T11:48:43.295Z,60
2018-12-11T11:49:43.032Z,60
2018-12-11T11:50:43.962Z,70
2018-12-11T11:51:43.240Z,60
2018-12-11T11:52:43.223Z,55
2018-12-11T11:53:43.206Z,60
2018-12-11T11:54:42.940Z,70
2018-12-11T11:55:43.168Z,70
2018-12-11T11:56:43.153Z,65
2018-12-11T11:57:42.890Z,65
2018-12-11T11:58:43.116Z,55
2018-12-11T11:59:43.092Z,55
2018-12-11T12:00:43.081Z,50
2018-12-11T12:01:42.562Z,60
2018-12-11T12:02:42.860Z,60
2018-12-11T12:03:43.027Z,65
2018-12-11T12:04:43.005Z,60
2018-12-11T12:05:42.991Z,50
2018-12-11T12:06:42.975Z,55
2018-12-11T12:07:42.975Z,60
2018-12-11T12:08:42.682Z,65
2018-12-11T12:09:42.661Z,55
2018-12-11T12:10:42.917Z,55
2018-12-11T12:11:42.378Z,50
2018-12-11T12:12:44.041Z,50
2018-12-11T12:13:42.839Z,45
2018-12-11T12:14:48.766Z,45
2018-12-11T12:15:42.799Z,55
2018-12-11T12:16:42.040Z,55
2018-12-11T12:17:42.769Z,50
2018-12-11T12:18:42.748Z,55
2018-12-11T12:19:42.485Z,55
2018-12-11T12:20:42.709Z,55
2018-12-11T12:21:42.500Z,55
2018-12-11T12:22:42.671Z,50
2018-12-11T12:23:42.663Z,55
2018-12-11T12:24:42.640Z,45
2018-12-11T12:25:42.627Z,45
2018-12-11T12:26:42.607Z,50
2018-12-11T12:27:42.341Z,50
2018-12-11T12:28:42.325Z,45
2018-12-11T12:29:42.546Z,40
2018-12-11T12:30:42.536Z,40
2018-12-11T12:31:42.274Z,40
2018-12-11T12:32:42.491Z,45
2018-12-11T12:33:42.475Z,45
2018-12-11T12:34:42.207Z,45
2018-12-11T12:35:42.439Z,45
2018-12-11T12:36:42.169Z,50
2018-12-11T12:37:42.398Z,45
2018-12-11T12:38:42.139Z,40
2018-12-11T12:39:42.366Z,45
2018-12-11T12:40:42.095Z,40
2018-12-11T12:41:42.327Z,35
2018-12-11T12:42:42.056Z,30
2018-12-11T12:43:42.050Z,30
2018-12-11T12:44:42.269Z,30
2018-12-11T12:45:42.261Z,35
2018-12-11T12:46:42.234Z,35
2018-12-11T12:47:42.212Z,35
2018-12-11T12:48:41.950Z,35
2018-12-11T12:49:42.177Z,35
2018-12-11T12:50:42.162Z,30
2018-12-11T12:51:42.140Z,30
2018-12-11T12:52:42.965Z,30
2018-12-11T12:53:42.106Z,30
2018-12-11T12:54:41.591Z,25
2018-12-11T12:55:41.832Z,25
2018-12-11T12:56:42.075Z,30
2018-12-11T12:57:42.027Z,30
2018-12-11T12:58:42.017Z,35
2018-12-11T12:59:41.997Z,30
2018-12-11T13:00:41.987Z,30
2018-12-11T13:01:41.723Z,30
2018-12-11T13:02:41.944Z,30
2018-12-11T13:03:41.929Z,40
2018-12-11T13:04:41.687Z,30
2018-12-11T13:05:41.893Z,30
2018-12-11T13:06:42.021Z,30
2018-12-11T13:07:41.854Z,25
2018-12-11T13:08:41.337Z,30
2018-12-11T13:09:41.567Z,35
2018-12-11T13:10:43.251Z,30
2018-12-11T13:11:41.532Z,35
2018-12-11T13:12:41.765Z,35
2018-12-11T13:13:41.739Z,30
2018-12-11T13:14:41.715Z,30
2018-12-11T13:15:41.707Z,35
2018-12-11T13:16:41.805Z,35
2018-12-11T13:17:41.688Z,30
2018-12-11T13:18:41.650Z,35
2018-12-11T13:19:41.623Z,30
2018-12-11T13:20:41.616Z,35
2018-12-11T13:21:41.589Z,30
2018-12-11T13:22:41.335Z,30
2018-12-11T13:23:41.566Z,30
2018-12-11T13:24:40.784Z,25
2018-12-11T13:25:41.519Z,25
2018-12-11T13:26:41.504Z,20
2018-12-11T13:27:41.493Z,20
2018-12-11T13:28:41.503Z,25
2018-12-11T13:29:41.451Z,25
2018-12-11T13:30:41.435Z,30
2018-12-11T13:31:41.410Z,25
2018-12-11T13:32:41.141Z,30
2018-12-11T13:33:41.369Z,30
2018-12-11T13:34:41.548Z,25
2018-12-11T13:35:41.083Z,25
2018-12-11T13:36:41.949Z,20
2018-12-11T13:37:41.303Z,25
2018-12-11T13:38:41.275Z,20
2018-12-11T13:39:41.359Z,20
2018-12-11T13:40:41.238Z,20
2018-12-11T13:41:41.220Z,20
2018-12-11T13:42:41.308Z,20
2018-12-11T13:43:40.958Z,20
2018-12-11T13:44:41.166Z,20
2018-12-11T13:45:41.393Z,15
2018-12-11T13:46:41.398Z,15
2018-12-11T13:47:40.863Z,15
2018-12-11T13:48:40.349Z,15
2018-12-11T13:49:41.087Z,15
2018-12-11T13:50:40.559Z,15
2018-12-11T13:51:41.052Z,15
2018-12-11T13:52:40.774Z,15
2018-12-11T13:53:41.002Z,15
2018-12-11T13:54:41.699Z,15
2018-12-11T13:55:40.962Z,15
2018-12-11T13:56:40.947Z,15
2018-12-11T13:57:40.682Z,10
2018-12-11T13:58:40.942Z,10
2018-12-11T13:59:40.910Z,10
2018-12-11T14:00:40.870Z,10
2018-12-11T14:01:40.850Z,10
2018-12-11T14:02:40.584Z,10
2018-12-11T14:03:40.823Z,10
2018-12-11T14:04:40.901Z,10
2018-12-11T14:05:40.785Z,10
2018-12-11T14:06:40.507Z,10
2018-12-11T14:07:40.749Z,10
2018-12-11T14:08:40.727Z,10
2018-12-11T14:09:40.812Z,10
2018-12-11T14:10:40.681Z,10
2018-12-11T14:11:40.167Z,10
2018-12-11T14:12:40.646Z,10
2018-12-11T14:13:40.690Z,10
2018-12-11T14:14:40.361Z,10
2018-12-11T14:15:40.589Z,5
2018-12-11T14:16:40.570Z,5
2018-12-11T14:17:40.306Z,5
2018-12-11T14:18:44.598Z,10
2018-12-11T14:19:40.307Z,10
2018-12-11T14:20:40.500Z,10
2018-12-11T14:21:40.233Z,5
2018-12-11T14:22:40.463Z,5
2018-12-11T14:23:40.200Z,5
2018-12-11T14:24:40.443Z,5
2018-12-11T14:25:40.161Z,5
2018-12-11T14:26:40.135Z,5
2018-12-11T14:27:40.370Z,5
2018-12-11T14:28:40.350Z,5
2018-12-11T14:29:40.328Z,5
2018-12-11T14:30:40.311Z,5
2018-12-11T14:31:40.289Z,5
2018-12-11T14:32:40.276Z,5